Sunderland, Vermont
Current Conditions -  °F | °C
As of 6:54 AM on Friday 21 Nov 2014 (Local Time) from KDDH Reporting Station
Overcast Overcast  
Wind Chill: 13°   Ceiling: 4900
Heat Index: 21°   Visibility: 10mi
Dew Point: 11°   Wind: 6mph
Humidity: 65%   Direction: NA
Pressure: 30.06"   Gusts: NA
Location:  43.0661°N, 73.1407°W
Report Text: KDDH 211154Z AUTO VRB05KT 10SM OVC049 M06/M12 A3006 RMK AO2 SLP189 T10611117 11039 21061 52031
Loading
Personal Weather Stations






























Interactive Weather Map New forecast layout! Learn more

10-Day Weather Forecast

Advertisements
Track Severe Weather on mobile